Whitefield, Oklahoma
Current Conditions -  °F | °C
As of 8:55 PM on Monday 26 Jan 2015 (Local Time) from KGZL Reporting Station
Clear Clear  
Wind Chill: 45°   Ceiling: Unl
Heat Index: 45°   Visibility: 10mi
Dew Point: 32°   Wind: 3mph
Humidity: 61%   Direction: 190°S
Pressure: 30.04"   Gusts: NA
Location:  35.25°N, 95.24°W
Report Text: KGZL 270255Z AUTO 19003KT 10SM CLR 07/00 A3004 RMK AO2
Loading
Personal Weather Stations






























Interactive Weather Map New forecast layout! Learn more

10-Day Weather Forecast

Advertisements
Track Severe Weather on mobile